createdAt,value
2023-01-21T00:02:22.313Z,-1.22
2023-01-21T00:07:27.719Z,-1.10
2023-01-21T00:12:31.170Z,-1.03
2023-01-21T00:17:36.347Z,-1.07
2023-01-21T00:22:41.918Z,-0.94
2023-01-21T00:27:45.863Z,-0.83
2023-01-21T00:32:49.296Z,-0.86
2023-01-21T00:37:53.884Z,-0.90
2023-01-21T00:42:57.089Z,-0.92
2023-01-21T00:48:00.282Z,-0.95
2023-01-21T00:53:04.823Z,-0.88
2023-01-21T00:58:08.047Z,-0.79
2023-01-21T01:03:11.360Z,-1.12
2023-01-21T01:08:15.771Z,-1.28
2023-01-21T01:13:18.879Z,-1.10
2023-01-21T01:18:22.021Z,-1.00
2023-01-21T01:23:27.104Z,-1.36
2023-01-21T01:28:30.700Z,-1.10
2023-01-21T01:33:34.007Z,-1.25
2023-01-21T01:38:38.611Z,-1.21
2023-01-21T01:43:54.454Z,-1.14
2023-01-21T01:49:02.773Z,-1.22
2023-01-21T01:54:08.233Z,-0.95
2023-01-21T01:59:11.833Z,-0.98
2023-01-21T02:04:21.092Z,-0.98
2023-01-21T02:09:29.760Z,-1.00
2023-01-21T02:14:36.493Z,-0.97
2023-01-21T02:20:12.783Z,-0.90
2023-01-21T02:25:42.381Z,-0.83
2023-01-21T02:31:07.238Z,-1.03
2023-01-21T02:36:30.926Z,-1.03
2023-01-21T02:41:45.316Z,-1.04
2023-01-21T02:46:54.619Z,-1.25
2023-01-21T02:51:59.146Z,-1.17
2023-01-21T02:57:02.380Z,-1.20
2023-01-21T03:02:19.469Z,-1.51
2023-01-21T03:07:29.939Z,-1.39
2023-01-21T03:12:40.605Z,-1.32
2023-01-21T03:17:52.007Z,-1.43
2023-01-21T03:23:02.417Z,-1.48
2023-01-21T03:28:09.466Z,-1.29
2023-01-21T03:33:16.353Z,-1.29
2023-01-21T03:38:26.287Z,-1.35
2023-01-21T03:43:29.529Z,-1.53
2023-01-21T03:48:39.541Z,-1.25
2023-01-21T03:53:44.908Z,-1.51
2023-01-21T03:58:48.008Z,-1.62
2023-01-21T04:03:51.155Z,-1.72
2023-01-21T04:08:55.729Z,-1.78
2023-01-21T04:13:58.797Z,-1.46
2023-01-21T04:19:01.924Z,-1.83
2023-01-21T04:24:07.474Z,-1.54
2023-01-21T04:29:10.599Z,-1.66
2023-01-21T04:34:14.017Z,-1.38
2023-01-21T04:39:19.027Z,-1.61
2023-01-21T04:44:22.118Z,-1.51
2023-01-21T04:49:25.321Z,-1.49
2023-01-21T04:54:29.796Z,-1.84
2023-01-21T04:59:32.967Z,-1.86
2023-01-21T05:04:36.092Z,-1.73
2023-01-21T05:09:40.716Z,-1.94
2023-01-21T05:14:43.988Z,-1.94
2023-01-21T05:19:47.393Z,-2.12
2023-01-21T05:24:51.944Z,-2.01
2023-01-21T05:29:57.060Z,-2.01
2023-01-21T05:35:00.316Z,-1.97
2023-01-21T05:40:05.493Z,-2.08
2023-01-21T05:45:09.625Z,-1.85
2023-01-21T05:50:13.974Z,-2.16
2023-01-21T05:55:18.750Z,-2.14
2023-01-21T06:00:22.707Z,-2.00
2023-01-21T06:05:25.734Z,-2.32
2023-01-21T06:10:30.229Z,-2.30
2023-01-21T06:15:33.847Z,-2.20
2023-01-21T06:20:38.130Z,-2.35
2023-01-21T06:25:43.647Z,-2.45
2023-01-21T06:30:46.937Z,-2.46
2023-01-21T06:35:50.419Z,-2.38
2023-01-21T06:40:54.912Z,-2.36
2023-01-21T06:45:58.183Z,-2.52
2023-01-21T06:51:02.000Z,-2.48
2023-01-21T06:56:06.913Z,-2.47
2023-01-21T07:01:11.235Z,-2.55
2023-01-21T07:06:14.320Z,-2.79
2023-01-21T07:11:18.956Z,-2.44
2023-01-21T07:16:22.179Z,-2.53
2023-01-21T07:21:26.138Z,-2.82
2023-01-21T07:26:30.691Z,-3.00
2023-01-21T07:31:34.115Z,-2.63
2023-01-21T07:36:37.912Z,-2.71
2023-01-21T07:41:42.885Z,-2.68
2023-01-21T07:46:48.129Z,-2.88
2023-01-21T07:51:51.580Z,-2.93
2023-01-21T07:56:56.140Z,-2.64
2023-01-21T08:01:59.615Z,-2.71
2023-01-21T08:07:12.945Z,-2.87
2023-01-21T08:12:18.429Z,-3.01
2023-01-21T08:17:22.392Z,-2.63
2023-01-21T08:22:26.009Z,-2.72
2023-01-21T08:27:30.693Z,-2.82
2023-01-21T08:32:34.009Z,-3.05
2023-01-21T08:37:37.559Z,-2.83
2023-01-21T08:42:42.486Z,-3.12
2023-01-21T08:47:45.779Z,-3.09
2023-01-21T08:52:52.226Z,-3.13
2023-01-21T08:57:58.441Z,-3.15
2023-01-21T09:03:01.743Z,-3.35
2023-01-21T09:08:04.975Z,-3.13
2023-01-21T09:13:11.641Z,-3.22
2023-01-21T09:18:15.177Z,-2.88
2023-01-21T09:23:25.426Z,-2.86
2023-01-21T09:28:32.144Z,-2.59
2023-01-21T09:33:38.441Z,-2.58
2023-01-21T09:38:43.123Z,-2.66
2023-01-21T09:43:55.537Z,-2.61
2023-01-21T09:49:00.735Z,-1.99
2023-01-21T09:54:06.673Z,-2.43
2023-01-21T09:59:21.106Z,-1.95
2023-01-21T10:04:35.660Z,-1.84
2023-01-21T10:09:49.980Z,-2.05
2023-01-21T10:15:08.183Z,-1.67
2023-01-21T10:20:18.347Z,-1.90
2023-01-21T10:25:29.201Z,-1.99
2023-01-21T10:30:38.924Z,-2.03
2023-01-21T10:35:59.776Z,-1.95
2023-01-21T10:41:11.848Z,-1.53
2023-01-21T10:46:25.000Z,-1.55
2023-01-21T10:51:33.113Z,-1.97
2023-01-21T10:56:43.881Z,-1.55
2023-01-21T11:01:51.907Z,-1.80
2023-01-21T11:07:00.547Z,-1.43
2023-01-21T11:12:04.234Z,-1.89
2023-01-21T11:17:08.935Z,-1.45
2023-01-21T11:22:23.574Z,-1.64
2023-01-21T11:27:34.862Z,-1.50
2023-01-21T11:32:39.664Z,-1.65
2023-01-21T11:37:46.297Z,-1.57
2023-01-21T11:42:51.547Z,-1.62
2023-01-21T11:47:56.947Z,-1.36
2023-01-21T11:53:13.199Z,-1.61
2023-01-21T11:58:23.729Z,-1.24
2023-01-21T12:03:32.689Z,-1.30
2023-01-21T12:08:38.899Z,-0.98
2023-01-21T12:13:51.877Z,-1.27
2023-01-21T12:19:16.288Z,-1.18
2023-01-21T12:24:30.271Z,-1.28
2023-01-21T12:29:53.809Z,-1.24
2023-01-21T12:35:03.490Z,-1.20
2023-01-21T12:40:17.371Z,-1.22
2023-01-21T12:45:25.828Z,-1.15
2023-01-21T12:50:39.705Z,-1.23
2023-01-21T12:56:04.533Z,-1.46
2023-01-21T13:01:12.414Z,-1.21
2023-01-21T13:06:29.524Z,-1.32
2023-01-21T13:11:41.888Z,-1.08
2023-01-21T13:16:50.572Z,-1.44
2023-01-21T13:22:00.654Z,-1.25
2023-01-21T13:27:16.880Z,-1.13
2023-01-21T13:32:35.811Z,-1.08
2023-01-21T13:37:51.377Z,-1.35
2023-01-21T13:43:04.207Z,-1.25
2023-01-21T13:48:25.822Z,-1.32
2023-01-21T13:53:47.137Z,-1.04
2023-01-21T13:58:54.762Z,-1.20
2023-01-21T14:04:03.237Z,-1.14
2023-01-21T14:09:14.865Z,-1.05
2023-01-21T14:14:54.994Z,-1.00
2023-01-21T14:20:13.701Z,-0.95
2023-01-21T14:25:29.358Z,-1.17
2023-01-21T14:30:41.232Z,-0.97
2023-01-21T14:35:49.209Z,-0.81
2023-01-21T14:41:06.476Z,-0.79
2023-01-21T14:46:28.851Z,-0.75
2023-01-21T14:51:32.694Z,-0.79
2023-01-21T14:56:38.403Z,-0.95
2023-01-21T15:01:45.147Z,-0.62
2023-01-21T15:06:52.163Z,-0.82
2023-01-21T15:12:02.062Z,-0.86
2023-01-21T15:17:05.987Z,-0.85
2023-01-21T15:22:40.858Z,-0.74
2023-01-21T15:28:23.746Z,-0.71
2023-01-21T15:33:28.336Z,-0.80
2023-01-21T15:38:31.819Z,-0.75
2023-01-21T15:43:45.075Z,-0.76
2023-01-21T15:49:15.600Z,-0.70
2023-01-21T15:54:30.192Z,-0.60
2023-01-21T15:59:58.349Z,-0.63
2023-01-21T16:05:17.785Z,-0.57
2023-01-21T16:10:32.890Z,-0.72
2023-01-21T16:15:47.092Z,-0.78
2023-01-21T16:20:53.923Z,-0.43
2023-01-21T16:25:57.460Z,-0.48
2023-01-21T16:31:05.818Z,-0.52
2023-01-21T16:36:14.167Z,-0.41
2023-01-21T16:41:27.760Z,-0.40
2023-01-21T16:46:37.459Z,-0.50
2023-01-21T16:51:45.431Z,-0.41
2023-01-21T16:56:50.450Z,-0.29
2023-01-21T17:01:56.303Z,-0.44
2023-01-21T17:06:59.970Z,-0.21
2023-01-21T17:12:06.993Z,-0.37
2023-01-21T17:17:21.073Z,-0.16
2023-01-21T17:22:27.405Z,-0.16
2023-01-21T17:27:32.516Z,-0.22
2023-01-21T17:32:38.161Z,-0.35
2023-01-21T17:37:43.973Z,-0.22
2023-01-21T17:42:47.231Z,-0.17
2023-01-21T17:48:08.663Z,-0.44
2023-01-21T17:53:21.217Z,-0.38
2023-01-21T17:58:45.916Z,-0.39
2023-01-21T18:03:50.596Z,-0.50
2023-01-21T18:08:54.258Z,-0.36
2023-01-21T18:13:57.539Z,-0.43
2023-01-21T18:19:02.051Z,-0.39
2023-01-21T18:24:05.603Z,-0.40
2023-01-21T18:29:11.670Z,-0.45
2023-01-21T18:34:16.349Z,-0.53
2023-01-21T18:39:21.065Z,-0.47
2023-01-21T18:44:24.216Z,-0.58
2023-01-21T18:49:29.469Z,-0.47
2023-01-21T18:54:34.176Z,-0.51
2023-01-21T18:59:38.449Z,-0.43
2023-01-21T19:04:42.980Z,-0.42
2023-01-21T19:09:46.440Z,-0.44
2023-01-21T19:14:49.826Z,-0.37
2023-01-21T19:19:54.800Z,-0.51
2023-01-21T19:24:58.228Z,-0.44
2023-01-21T19:30:01.345Z,-0.31
2023-01-21T19:35:06.649Z,-0.43
2023-01-21T19:40:15.725Z,-0.36
2023-01-21T19:45:20.358Z,-0.33
2023-01-21T19:50:26.490Z,-0.21
2023-01-21T19:55:32.086Z,-0.16
2023-01-21T20:00:37.437Z,-0.21
2023-01-21T20:05:43.350Z,-0.28
2023-01-21T20:10:47.008Z,-0.14
2023-01-21T20:15:52.912Z,-0.28
2023-01-21T20:20:57.557Z,-0.37
2023-01-21T20:26:00.939Z,-0.26
2023-01-21T20:31:07.213Z,-0.10
2023-01-21T20:36:18.337Z,-0.15
2023-01-21T20:41:22.052Z,-0.15
2023-01-21T20:46:28.490Z,0.03
2023-01-21T20:51:33.211Z,-0.24
2023-01-21T20:56:38.373Z,-0.12
2023-01-21T21:01:41.599Z,-0.26
2023-01-21T21:06:46.450Z,-0.10
2023-01-21T21:11:49.886Z,-0.32
2023-01-21T21:16:54.515Z,-0.19
2023-01-21T21:21:59.068Z,-0.18
2023-01-21T21:27:03.559Z,-0.43
2023-01-21T21:32:07.640Z,-0.17
2023-01-21T21:37:13.741Z,-0.13
2023-01-21T21:42:36.873Z,-0.26
2023-01-21T21:47:57.538Z,-0.08
2023-01-21T21:53:02.298Z,-0.18
2023-01-21T21:58:05.762Z,-0.19
2023-01-21T22:03:12.222Z,-0.12
2023-01-21T22:08:17.971Z,-0.37
2023-01-21T22:13:21.462Z,-0.15
2023-01-21T22:18:25.093Z,-0.21
2023-01-21T22:23:30.616Z,-0.07
2023-01-21T22:28:35.229Z,-0.24
2023-01-21T22:33:39.361Z,-0.48
2023-01-21T22:38:45.704Z,-0.31
2023-01-21T22:43:50.066Z,-0.06
2023-01-21T22:48:55.046Z,-0.31
2023-01-21T22:54:00.190Z,-0.33
2023-01-21T22:59:03.696Z,0.00
2023-01-21T23:04:07.685Z,-0.28
2023-01-21T23:09:14.550Z,0.04
2023-01-21T23:14:18.032Z,-0.05
2023-01-21T23:19:21.534Z,-0.18
2023-01-21T23:24:26.296Z,-0.16
2023-01-21T23:29:29.862Z,-0.23
2023-01-21T23:34:33.460Z,-0.10
2023-01-21T23:39:38.370Z,-0.14
2023-01-21T23:44:41.385Z,-0.15
2023-01-21T23:49:44.713Z,-0.31
2023-01-21T23:54:49.788Z,-0.15
2023-01-21T23:59:53.426Z,0.00
